Time;durP1;ratioP1;P1;durP2;ratioP2;P2;SDS_P1;SDS_P2;PMS_P1;PMS_P2;Temp;Humidity;BMP_temperature;BMP_pressure;BME280_temperature;BME280_humidity;BME280_pressure;Samples;Min_cycle;Max_cycle;Signal;HPM_P1;HPM_P2
2021/12/23 00:00:55;;;;;;;5.60;2.75;;;;;;;-10.28;100.00;100393.41;1698985;84;20111;-67
2021/12/23 00:03:22;;;;;;;7.15;3.17;;;;;;;-10.31;100.00;100387.55;1679601;84;21064;-65
2021/12/23 00:05:49;;;;;;;6.80;2.87;;;;;;;-10.36;100.00;100387.91;1682076;84;21183;-65
2021/12/23 00:08:15;;;;;;;5.62;2.67;;;;;;;-10.36;100.00;100387.08;1682275;84;21527;-66
2021/12/23 00:10:44;;;;;;;7.60;3.37;;;;;;;-10.34;100.00;100380.72;1673254;84;21732;-65
2021/12/23 00:13:10;;;;;;;5.85;2.98;;;;;;;-10.31;100.00;100392.82;1673420;84;21083;-67
2021/12/23 00:16:00;;;;;;;8.05;3.42;;;;;;;-10.29;100.00;100386.47;1676905;84;21079;-66
2021/12/23 00:25:49;;;;;;;6.45;3.52;;;;;;;-10.29;100.00;100389.09;1701038;84;21089;-66
2021/12/23 00:28:15;;;;;;;9.80;4.15;;;;;;;-10.34;100.00;100391.76;1700135;84;21506;-67
2021/12/23 00:30:41;;;;;;;6.95;3.47;;;;;;;-10.34;100.00;100389.13;1674583;84;21143;-67
2021/12/23 00:33:08;;;;;;;9.78;4.50;;;;;;;-10.34;100.00;100392.56;1682650;84;21522;-67
2021/12/23 00:35:35;;;;;;;8.48;3.62;;;;;;;-10.32;100.00;100389.82;1677658;84;21052;-67
2021/12/23 00:38:09;;;;;;;7.95;3.90;;;;;;;-10.34;100.00;100393.07;1673240;85;21068;-67
2021/12/23 00:40:30;;;;;;;10.95;4.03;;;;;;;-10.37;100.00;100398.55;1693941;83;21099;-67
2021/12/23 00:42:57;;;;;;;8.98;3.95;;;;;;;-10.41;100.00;100399.75;1694750;84;21565;-67
2021/12/23 00:45:24;;;;;;;7.22;3.40;;;;;;;-10.49;100.00;100398.23;1700570;84;21486;-67
2021/12/23 00:47:50;;;;;;;6.90;3.55;;;;;;;-10.51;100.00;100406.72;1698788;84;21036;-68
2021/12/23 00:50:16;;;;;;;7.08;3.42;;;;;;;-10.57;100.00;100396.20;1692613;84;21132;-67
2021/12/23 00:52:43;;;;;;;8.60;4.00;;;;;;;-10.58;100.00;100388.42;1694783;84;21100;-66
2021/12/23 00:55:11;;;;;;;7.03;3.50;;;;;;;-10.64;100.00;100394.55;1699267;83;21613;-67
2021/12/23 00:57:40;;;;;;;8.98;4.53;;;;;;;-10.68;100.00;100393.11;1683373;84;21601;-67
2021/12/23 01:00:15;;;;;;;7.58;3.83;;;;;;;-10.74;100.00;100394.08;1678609;84;21096;-67
2021/12/23 01:02:44;;;;;;;8.00;3.98;;;;;;;-10.79;100.00;100397.06;1671910;84;21060;-68
2021/12/23 01:05:11;;;;;;;8.60;4.22;;;;;;;-10.83;100.00;100400.88;1691777;84;21123;-67
2021/12/23 01:07:37;;;;;;;8.98;3.83;;;;;;;-10.81;100.00;100396.83;1672805;86;21083;-66
2021/12/23 01:10:04;;;;;;;;;;;;;;;-10.83;100.00;100398.25;1675918;84;21510;-67
2021/12/23 01:12:38;;;;;;;8.48;4.37;;;;;;;-10.83;100.00;100400.04;1686216;84;20424;-67
2021/12/23 01:15:15;;;;;;;10.25;4.33;;;;;;;-10.89;100.00;100396.11;1679963;84;21067;-67
2021/12/23 01:19:56;;;;;;;8.85;3.98;;;;;;;-10.89;100.00;100403.16;1701167;84;21606;-66
2021/12/23 01:22:22;;;;;;;7.83;3.77;;;;;;;-10.96;100.00;100401.48;1693781;84;21068;-66
2021/12/23 01:24:50;;;;;;;10.25;3.87;;;;;;;-10.99;100.00;100400.89;1688144;84;21606;-66
2021/12/23 01:27:16;;;;;;;7.80;3.80;;;;;;;-11.05;100.00;100402.18;1676934;84;21032;-66
2021/12/23 01:29:43;;;;;;;7.92;3.77;;;;;;;-11.07;100.00;100406.73;1682548;84;21008;-66
2021/12/23 01:32:10;;;;;;;9.53;4.75;;;;;;;-11.09;100.00;100407.34;1684376;83;21041;-67
2021/12/23 01:34:36;;;;;;;11.12;5.03;;;;;;;-11.07;100.00;100406.73;1710223;83;21000;-67
2021/12/23 01:37:03;;;;;;;;;;;;;;;-11.06;100.00;100409.73;1726527;83;21028;-66
2021/12/23 01:39:30;;;;;;;7.72;3.40;;;;;;;-11.05;100.00;100421.09;1703718;83;20135;-67
2021/12/23 01:41:57;;;;;;;12.65;4.62;;;;;;;-11.08;100.00;100415.56;1695191;83;21662;-66
2021/12/23 01:44:24;;;;;;;9.23;4.28;;;;;;;-11.07;100.00;100409.36;1695508;83;21016;-67
2021/12/23 01:46:50;;;;;;;10.40;4.28;;;;;;;-11.12;100.00;100403.61;1695404;83;21064;-67
2021/12/23 01:49:16;;;;;;;8.38;3.75;;;;;;;-11.13;100.00;100409.84;1705216;83;20961;-67
2021/12/23 01:51:43;;;;;;;;;;;;;;;-11.16;100.00;100404.83;1713158;83;21106;-65
2021/12/23 01:54:09;;;;;;;6.17;2.67;;;;;;;-11.20;100.00;100418.69;1714621;83;20124;-66
2021/12/23 01:56:35;;;;;;;7.28;3.35;;;;;;;-11.26;100.00;100427.02;1723764;82;21571;-67
2021/12/23 01:59:02;;;;;;;10.60;3.90;;;;;;;-11.25;100.00;100427.86;1723447;83;20998;-67
2021/12/23 02:01:28;;;;;;;6.75;2.98;;;;;;;-11.20;100.00;100430.52;1699228;83;21124;-67
2021/12/23 02:03:54;;;;;;;7.17;3.85;;;;;;;-11.21;100.00;100424.05;1711478;83;21004;-66
2021/12/23 02:06:21;;;;;;;6.30;3.33;;;;;;;-11.25;100.00;100427.37;1695027;85;21135;-66
2021/12/23 02:08:47;;;;;;;7.53;3.75;;;;;;;-11.23;100.00;100423.34;1707851;83;21044;-68
2021/12/23 02:11:14;;;;;;;7.62;4.17;;;;;;;-11.22;100.00;100424.52;1701689;83;21108;-67
2021/12/23 02:13:40;;;;;;;8.05;3.72;;;;;;;-11.20;100.00;100435.77;1710531;83;21040;-67
2021/12/23 02:16:07;;;;;;;6.72;3.52;;;;;;;-11.21;100.00;100431.92;1695085;84;21111;-67
2021/12/23 02:18:35;;;;;;;6.85;3.15;;;;;;;-11.21;100.00;100429.30;1695264;84;21443;-66
2021/12/23 02:21:03;;;;;;;10.85;4.80;;;;;;;-11.23;100.00;100420.70;1700638;83;21111;-66
2021/12/23 02:23:31;;;;;;;7.45;3.52;;;;;;;-11.25;100.00;100430.01;1716848;83;21001;-68
2021/12/23 02:25:58;;;;;;;7.50;3.30;;;;;;;-11.27;100.00;100426.67;1741000;82;21513;-66
2021/12/23 02:28:26;;;;;;;8.40;3.77;;;;;;;-11.29;100.00;100430.35;1706128;81;21079;-66
2021/12/23 02:30:52;;;;;;;6.97;3.65;;;;;;;-11.31;100.00;100430.95;1700328;83;21119;-64
2021/12/23 02:33:21;;;;;;;5.45;3.00;;;;;;;-11.31;100.00;100433.11;1707896;83;21064;-66
2021/12/23 02:35:48;;;;;;;7.42;3.52;;;;;;;-11.35;100.00;100433.45;1719241;83;21065;-66
2021/12/23 02:38:14;;;;;;;7.90;3.92;;;;;;;-11.35;100.00;100433.45;1707921;82;21040;-64
2021/12/23 02:40:42;;;;;;;8.20;3.85;;;;;;;-11.33;100.00;100435.47;1723878;83;21143;-66
2021/12/23 02:43:22;;;;;;;7.87;3.85;;;;;;;-11.30;100.00;100430.02;1723584;82;21064;-66
2021/12/23 02:45:50;;;;;;;9.73;4.55;;;;;;;-11.28;100.00;100427.62;1699462;83;21072;-66
2021/12/23 02:48:19;;;;;;;9.75;4.60;;;;;;;-11.28;100.00;100426.30;1707934;83;21005;-66
2021/12/23 02:50:49;;;;;;;8.08;4.70;;;;;;;-11.24;100.00;100432.16;1695284;84;21665;-66
2021/12/23 02:53:16;;;;;;;8.98;4.67;;;;;;;-11.24;100.00;100427.75;1699454;83;21055;-66
2021/12/23 02:55:44;;;;;;;9.78;4.53;;;;;;;-11.30;100.00;100422.94;1716215;83;21607;-65
2021/12/23 02:58:10;;;;;;;7.55;4.08;;;;;;;-11.36;100.00;100423.41;1701097;83;21068;-66
2021/12/23 03:00:38;;;;;;;8.55;4.30;;;;;;;-11.40;100.00;100426.38;1695381;85;21068;-66
2021/12/23 03:03:05;;;;;;;10.15;4.10;;;;;;;-11.45;100.00;100421.49;1697229;83;21041;-66
2021/12/23 03:05:32;;;;;;;10.63;4.75;;;;;;;-11.51;100.00;100422.44;1700941;83;21563;-66
2021/12/23 03:07:59;;;;;;;8.25;4.08;;;;;;;-11.57;100.00;100422.40;1695256;83;21048;-66
2021/12/23 03:10:26;;;;;;;8.38;3.95;;;;;;;-11.64;100.00;100423.34;1699318;83;21096;-65
2021/12/23 03:12:53;;;;;;;10.60;4.53;;;;;;;-11.69;100.00;100420.20;1721381;83;21052;-66
2021/12/23 03:15:19;;;;;;;11.60;5.50;;;;;;;-11.70;100.00;100419.86;1701987;83;21095;-66
2021/12/23 03:17:45;;;;;;;13.35;6.35;;;;;;;-11.71;100.00;100426.09;1696612;83;21056;-66
2021/12/23 03:20:13;;;;;;;12.45;5.58;;;;;;;-11.76;100.00;100420.33;1720078;82;21492;-66
2021/12/23 03:22:40;;;;;;;16.42;6.05;;;;;;;-11.84;100.00;100424.48;1721412;83;21084;-65
2021/12/23 03:25:07;;;;;;;9.40;5.12;;;;;;;-11.88;100.00;100434.85;1713570;82;21035;-66
2021/12/23 03:27:34;;;;;;;12.13;5.62;;;;;;;-11.95;100.00;100423.13;1723669;83;21571;-67
2021/12/23 03:30:00;;;;;;;10.93;5.70;;;;;;;-11.99;100.00;100426.45;1702732;83;21196;-66
2021/12/23 03:32:26;;;;;;;11.45;5.35;;;;;;;-12.02;100.00;100422.73;1698390;83;21550;-67
2021/12/23 03:34:52;;;;;;;12.68;5.95;;;;;;;-12.03;100.00;100424.15;1715261;83;21032;-67
2021/12/23 03:37:19;;;;;;;11.05;5.75;;;;;;;-12.07;100.00;100427.95;1695841;83;21677;-66
2021/12/23 03:39:50;;;;;;;11.55;5.90;;;;;;;-12.09;100.00;100428.55;1694928;84;21059;-66
2021/12/23 03:42:14;;;;;;;11.70;5.67;;;;;;;-12.13;100.00;100426.62;1703355;83;21095;-66
2021/12/23 03:44:40;;;;;;;12.73;6.17;;;;;;;-12.16;100.00;100430.31;1696708;83;20997;-67
2021/12/23 03:47:07;;;;;;;13.30;6.55;;;;;;;-12.17;100.00;100433.87;1696252;83;21633;-66
2021/12/23 03:49:33;;;;;;;14.25;6.75;;;;;;;-12.18;100.00;100439.22;1695314;85;21705;-67
2021/12/23 03:52:00;;;;;;;15.53;6.95;;;;;;;-12.19;100.00;100438.88;1695491;83;21172;-67
2021/12/23 03:54:27;;;;;;;12.28;5.83;;;;;;;-12.23;100.00;100441.36;1719604;83;21539;-67
2021/12/23 03:56:53;;;;;;;19.32;7.75;;;;;;;-12.29;100.00;100442.61;1706498;83;21068;-66
2021/12/23 03:59:19;;;;;;;20.02;7.67;;;;;;;-12.39;100.00;100444.23;1703416;83;21071;-66
2021/12/23 04:01:46;;;;;;;20.00;8.20;;;;;;;-12.50;100.00;100442.02;1721634;83;21076;-65
2021/12/23 04:04:12;;;;;;;18.07;8.60;;;;;;;-12.63;100.00;100442.03;1715004;83;22066;-67
2021/12/23 04:06:38;;;;;;;17.12;8.20;;;;;;;-12.72;100.00;100443.53;1706777;83;21088;-66
2021/12/23 04:09:05;;;;;;;18.23;7.60;;;;;;;-12.78;100.00;100439.16;1699882;83;21008;-67
2021/12/23 04:11:31;;;;;;;16.42;6.97;;;;;;;-12.80;100.00;100437.98;1708333;82;21068;-66
2021/12/23 04:13:58;;;;;;;17.42;7.42;;;;;;;-12.85;100.00;100444.00;1724066;83;21031;-67
2021/12/23 04:16:24;;;;;;;18.42;8.13;;;;;;;-12.90;100.00;100452.67;1723522;83;21052;-67
2021/12/23 04:18:52;;;;;;;19.77;7.83;;;;;;;-12.95;100.00;100446.89;1713712;83;21088;-65
2021/12/23 04:21:18;;;;;;;19.60;7.08;;;;;;;-12.98;100.00;100452.35;1697315;83;21092;-66
2021/12/23 04:23:45;;;;;;;17.45;7.30;;;;;;;-12.98;100.00;100452.35;1695542;83;21087;-66
2021/12/23 04:26:12;;;;;;;19.32;7.72;;;;;;;-13.03;100.00;100454.91;1696823;83;21056;-66
2021/12/23 04:28:46;;;;;;;17.52;7.85;;;;;;;-13.15;100.00;100450.09;1713692;82;21056;-66
2021/12/23 04:31:07;;;;;;;17.17;7.58;;;;;;;-13.19;100.00;100449.92;1718443;83;21056;-66
2021/12/23 04:33:34;;;;;;;15.75;7.50;;;;;;;-13.24;100.00;100450.69;1710161;83;21029;-65
2021/12/23 04:36:00;;;;;;;19.37;7.33;;;;;;;-13.31;100.00;100449.43;1703169;83;21029;-66
2021/12/23 04:38:27;;;;;;;17.65;7.12;;;;;;;-13.33;100.00;100451.33;1695079;83;21056;-66
2021/12/23 04:40:53;;;;;;;15.80;6.33;;;;;;;-13.34;100.00;100447.02;1713208;83;21101;-66
2021/12/23 04:43:20;;;;;;;16.23;7.42;;;;;;;-13.37;100.00;100454.63;1687992;83;21080;-66
2021/12/23 04:45:47;;;;;;;19.00;7.53;;;;;;;-13.43;100.00;100456.81;1672435;85;21120;-66
2021/12/23 04:48:13;;;;;;;19.07;7.22;;;;;;;-13.47;100.00;100456.66;1679659;84;21043;-66
2021/12/23 04:50:39;;;;;;;;;;;;;;;-13.51;100.00;100449.94;1685342;83;21658;-66
2021/12/23 04:53:06;;;;;;;18.10;6.60;;;;;;;-13.53;100.00;100454.45;1718886;83;20138;-66
2021/12/23 04:55:32;;;;;;;18.32;7.17;;;;;;;-13.58;100.00;100460.45;1730297;83;21085;-66
2021/12/23 04:57:59;;;;;;;20.05;8.18;;;;;;;-13.59;100.00;100460.07;1686233;83;21272;-65
2021/12/23 05:00:25;;;;;;;19.98;7.28;;;;;;;-13.61;100.00;100460.66;1685990;84;21080;-66
2021/12/23 05:02:51;;;;;;;24.30;9.18;;;;;;;-13.65;100.00;100463.95;1676657;84;21903;-67
2021/12/23 05:05:18;;;;;;;14.98;7.55;;;;;;;-13.68;100.00;100459.77;1673761;84;21068;-66
2021/12/23 05:07:45;;;;;;;16.02;7.55;;;;;;;-13.71;100.00;100461.25;1686491;84;21606;-68
2021/12/23 05:10:12;;;;;;;;;;;;;;;-13.79;100.00;100460.93;1688404;84;21132;-66
2021/12/23 05:12:43;;;;;;;17.83;7.33;;;;;;;-13.84;100.00;100465.61;1692678;84;20141;-67
2021/12/23 05:15:08;;;;;;;24.32;8.75;;;;;;;-13.87;100.00;100467.13;1671764;86;21060;-66
2021/12/23 05:17:35;;;;;;;22.90;8.05;;;;;;;-13.85;100.00;100472.27;1698256;84;21092;-67
2021/12/23 05:20:07;;;;;;;20.35;7.90;;;;;;;-13.88;100.00;100467.21;1700926;84;21618;-67
2021/12/23 05:22:35;;;;;;;20.35;7.80;;;;;;;-13.93;100.00;100468.84;1698344;84;21040;-67
2021/12/23 05:25:01;;;;;;;29.30;10.18;;;;;;;-13.95;100.00;100475.94;1700405;83;21586;-66
2021/12/23 05:27:29;;;;;;;26.97;10.38;;;;;;;-13.91;100.00;100471.34;1681803;84;21032;-66
2021/12/23 05:29:55;;;;;;;26.23;9.35;;;;;;;-13.86;100.00;100470.59;1693699;84;21062;-65
2021/12/23 05:32:22;;;;;;;28.17;11.20;;;;;;;-13.81;100.00;100477.19;1681993;83;21090;-66
2021/12/23 05:34:48;;;;;;;28.90;10.63;;;;;;;-13.76;100.00;100467.73;1678622;84;21403;-66
2021/12/23 05:37:14;;;;;;;29.37;11.53;;;;;;;-13.69;100.00;100467.70;1675077;84;21126;-67
2021/12/23 05:39:40;;;;;;;28.23;10.88;;;;;;;-13.59;100.00;100467.92;1690058;84;21032;-67
2021/12/23 05:42:07;;;;;;;32.48;11.70;;;;;;;-13.51;100.00;100473.50;1679874;84;21135;-67
2021/12/23 05:44:34;;;;;;;;;;;;;;;-13.47;100.00;100471.05;1690056;84;21527;-67
2021/12/23 05:47:00;;;;;;;29.15;9.83;;;;;;;-13.44;100.00;100475.62;1688423;84;20577;-67
2021/12/23 05:49:27;;;;;;;34.80;12.28;;;;;;;-13.41;100.00;100469.33;1686582;84;21048;-70
2021/12/23 05:51:53;;;;;;;32.88;11.78;;;;;;;-13.31;100.00;100469.92;1695704;84;21673;-67
2021/12/23 05:54:19;;;;;;;27.73;11.08;;;;;;;-13.18;100.00;100473.88;1681760;84;21086;-67
2021/12/23 05:56:46;;;;;;;30.43;11.80;;;;;;;-13.04;100.00;100477.68;1674617;84;21052;-67
2021/12/23 05:59:12;;;;;;;30.10;10.63;;;;;;;-12.94;100.00;100476.57;1690683;84;21072;-67
2021/12/23 06:01:39;;;;;;;20.48;9.08;;;;;;;-12.84;100.00;100478.92;1679078;84;21040;-67
2021/12/23 06:04:05;;;;;;;22.10;9.83;;;;;;;-12.76;100.00;100473.53;1683046;84;21625;-66
2021/12/23 06:06:31;;;;;;;20.52;8.43;;;;;;;-12.68;100.00;100478.25;1695711;84;21055;-66
2021/12/23 06:08:57;;;;;;;22.45;7.90;;;;;;;-12.58;100.00;100477.13;1677708;84;21076;-66
2021/12/23 06:11:25;;;;;;;14.63;6.90;;;;;;;-12.50;100.00;100473.50;1685735;84;21048;-67
2021/12/23 06:13:53;;;;;;;10.88;4.60;;;;;;;-12.44;100.00;100477.84;1697405;84;21063;-69
2021/12/23 06:19:23;;;;;;;7.37;3.45;;;;;;;-12.29;100.00;100473.30;1672042;81;21728;-70
2021/12/23 06:21:49;;;;;;;8.90;3.65;;;;;;;-12.20;100.00;100477.87;1673095;85;21028;-65
2021/12/23 06:24:15;;;;;;;7.55;4.20;;;;;;;-12.12;100.00;100476.02;1648441;84;21088;-65
2021/12/23 06:26:43;;;;;;;8.80;4.30;;;;;;;-12.08;100.00;100481.41;1636778;87;21554;-65
2021/12/23 06:29:09;;;;;;;5.78;3.30;;;;;;;-12.05;100.00;100482.50;1636778;86;21106;-65
2021/12/23 06:31:35;;;;;;;8.98;3.80;;;;;;;-12.02;100.00;100480.96;1662796;85;21599;-66
2021/12/23 06:34:02;;;;;;;9.58;4.53;;;;;;;-11.98;100.00;100485.89;1670835;85;21067;-65
2021/12/23 06:36:28;;;;;;;;;;;;;;;-11.95;100.00;100484.82;1686144;85;21572;-65
2021/12/23 06:38:54;;;;;;;6.87;3.40;;;;;;;-11.89;100.00;100491.77;1674022;83;20114;-64
2021/12/23 06:41:21;;;;;;;7.12;3.83;;;;;;;-11.92;100.00;100483.28;1662168;84;21007;-65
2021/12/23 06:43:47;;;;;;;7.25;3.42;;;;;;;-11.93;100.00;100483.75;1664353;85;21062;-65
2021/12/23 06:46:13;;;;;;;9.08;3.80;;;;;;;-11.91;100.00;100487.59;1673699;85;21042;-65
2021/12/23 06:48:40;;;;;;;7.72;3.45;;;;;;;-11.89;100.00;100490.46;1685401;84;21589;-65
2021/12/23 06:51:06;;;;;;;5.97;3.20;;;;;;;-11.86;100.00;100486.77;1686173;85;21035;-65
2021/12/23 06:53:33;;;;;;;8.40;4.00;;;;;;;-11.80;100.00;100486.34;1681753;85;21571;-64
2021/12/23 06:56:00;;;;;;;10.15;3.87;;;;;;;-11.82;100.00;100491.70;1681639;85;21555;-65
2021/12/23 06:58:27;;;;;;;6.22;3.33;;;;;;;-11.80;100.00;100484.56;1681461;85;21108;-64
2021/12/23 07:00:53;;;;;;;7.22;3.45;;;;;;;-11.73;100.00;100483.63;1681807;85;21072;-65
2021/12/23 07:03:20;;;;;;;5.08;2.98;;;;;;;-11.69;100.00;100487.69;1681458;85;21639;-65
2021/12/23 07:05:55;;;;;;;5.80;2.92;;;;;;;-11.69;100.00;100487.18;1681489;85;21077;-65
2021/12/23 07:08:28;;;;;;;7.35;3.98;;;;;;;-11.69;100.00;100480.61;1680674;85;21128;-64
2021/12/23 07:10:54;;;;;;;5.60;3.22;;;;;;;-11.70;100.00;100482.91;1681496;85;21844;-65
2021/12/23 07:13:21;;;;;;;5.53;2.92;;;;;;;-11.71;100.00;100486.50;1681406;85;21082;-63
2021/12/23 07:15:48;;;;;;;7.53;2.90;;;;;;;-11.72;100.00;100486.12;1681614;85;21061;-64
2021/12/23 07:18:16;;;;;;;5.95;3.08;;;;;;;-11.71;100.00;100486.97;1681343;85;21113;-65
2021/12/23 07:20:42;;;;;;;8.25;3.75;;;;;;;-11.72;100.00;100487.91;1666528;85;21071;-65
2021/12/23 07:23:09;;;;;;;6.97;3.37;;;;;;;-11.73;100.00;100483.16;1663145;86;21114;-65
2021/12/23 07:25:36;;;;;;;;;;;;;;;-11.72;100.00;100483.50;1662634;86;21082;-64
2021/12/23 07:28:02;;;;;;;10.25;3.40;;;;;;;-11.77;100.00;100483.02;1662043;85;20141;-64
2021/12/23 07:30:29;;;;;;;6.58;3.17;;;;;;;-11.81;100.00;100489.44;1662940;86;21027;-64
2021/12/23 07:32:56;;;;;;;7.00;3.83;;;;;;;-11.85;100.00;100489.30;1662968;85;21118;-64
2021/12/23 07:35:22;;;;;;;7.20;3.67;;;;;;;-11.85;100.00;100486.67;1673094;85;21044;-65
2021/12/23 07:37:49;;;;;;;7.20;3.35;;;;;;;-11.82;100.00;100485.59;1684775;84;21114;-65
2021/12/23 07:40:17;;;;;;;10.23;4.03;;;;;;;-11.80;100.00;100484.56;1667857;85;21083;-64
2021/12/23 07:42:53;;;;;;;12.28;5.47;;;;;;;-11.78;100.00;100481.33;1663546;86;21034;-65
2021/12/23 07:45:13;;;;;;;12.58;5.55;;;;;;;-11.75;100.00;100479.79;1660522;86;21584;-64
2021/12/23 07:47:39;;;;;;;11.43;6.28;;;;;;;-11.71;100.00;100480.41;1663094;85;21085;-64
2021/12/23 07:50:07;;;;;;;12.95;5.62;;;;;;;-11.61;100.00;100470.39;1663460;85;21047;-64
2021/12/23 07:52:34;;;;;;;13.00;5.58;;;;;;;-11.47;100.00;100468.52;1637330;85;21050;-64
2021/12/23 07:55:00;;;;;;;15.15;6.05;;;;;;;-11.45;100.00;100471.41;1658633;86;21082;-65
2021/12/23 07:57:26;;;;;;;14.98;6.30;;;;;;;-11.36;100.00;100466.77;1663416;86;21110;-65
2021/12/23 07:59:53;;;;;;;9.98;4.97;;;;;;;-11.22;100.00;100467.05;1663818;86;21593;-64
2021/12/23 08:02:21;;;;;;;9.53;4.83;;;;;;;-11.06;100.00;100462.31;1669193;85;20996;-64
2021/12/23 08:04:47;;;;;;;10.70;5.50;;;;;;;-10.93;100.00;100456.47;1667558;84;21055;-65
2021/12/23 08:07:15;;;;;;;8.45;4.45;;;;;;;-10.73;100.00;100456.23;1658882;85;21036;-65
2021/12/23 08:09:42;;;;;;;8.15;3.72;;;;;;;-10.55;100.00;100456.12;1663369;86;21106;-64
2021/12/23 08:12:10;;;;;;;7.33;4.20;;;;;;;-10.39;100.00;100451.81;1663312;85;21023;-66
2021/12/23 08:14:38;;;;;;;7.70;3.95;;;;;;;-10.24;100.00;100450.61;1658004;86;21129;-64
2021/12/23 08:17:06;;;;;;;6.22;3.60;;;;;;;-10.18;100.00;100441.73;1657968;86;21577;-64
2021/12/23 08:19:32;;;;;;;8.53;4.28;;;;;;;-10.09;100.00;100446.69;1662292;85;21070;-64
2021/12/23 08:21:59;;;;;;;7.75;3.83;;;;;;;-10.00;100.00;100444.65;1684361;85;21533;-65
2021/12/23 08:24:25;;;;;;;9.28;4.30;;;;;;;-9.95;100.00;100441.66;1683427;85;21901;-64
2021/12/23 08:26:53;;;;;;;8.48;4.40;;;;;;;-9.87;100.00;100442.69;1686343;84;21073;-64
2021/12/23 08:29:20;;;;;;;8.78;4.05;;;;;;;-9.69;100.00;100446.45;1680260;84;21664;-64
2021/12/23 08:31:53;;;;;;;6.15;3.33;;;;;;;-9.53;100.00;100452.63;1691762;84;20986;-65
2021/12/23 08:34:17;;;;;;;7.28;3.52;;;;;;;-9.31;100.00;100445.07;1676561;84;21114;-64
2021/12/23 08:36:43;;;;;;;8.13;3.52;;;;;;;-9.17;100.00;100436.84;1682074;85;21017;-65
2021/12/23 08:39:10;;;;;;;6.92;3.25;;;;;;;-8.94;100.00;100429.15;1682556;84;21123;-66
2021/12/23 08:41:36;;;;;;;6.37;3.87;;;;;;;-8.94;100.00;100429.15;1683893;85;21465;-65
2021/12/23 08:44:03;;;;;;;6.00;3.08;;;;;;;-8.84;100.00;100422.11;1692021;85;21051;-64
2021/12/23 08:46:30;;;;;;;6.20;3.42;;;;;;;-8.65;100.00;100421.38;1691301;85;21026;-64
2021/12/23 08:48:56;;;;;;;8.10;3.90;;;;;;;-8.52;100.00;100420.66;1691550;83;21912;-65
2021/12/23 08:51:23;;;;;;;10.23;4.05;;;;;;;-8.34;100.00;100421.69;1691768;85;21072;-65
2021/12/23 08:53:49;;;;;;;;;;;;;;;-8.14;100.00;100420.72;1693387;84;21951;-63
2021/12/23 08:56:16;;;;;;;7.80;3.70;;;;;;;-7.95;100.00;100410.68;1692211;84;20154;-64
2021/12/23 09:00:44;;;;;;;6.28;3.42;;;;;;;-7.77;100.00;100401.58;1798591;79;23292;-62
2021/12/23 09:03:11;;;;;;;8.53;4.25;;;;;;;-7.73;100.00;100402.50;1743298;82;21082;-61
2021/12/23 09:05:39;;;;;;;8.53;4.50;;;;;;;-7.52;100.00;100398.38;1709579;82;21086;-62
2021/12/23 09:08:06;;;;;;;9.28;5.58;;;;;;;-7.54;100.00;100392.89;1711279;83;21043;-60
2021/12/23 09:10:33;;;;;;;8.15;4.85;;;;;;;-7.65;100.00;100390.72;1698577;84;21627;-61
2021/12/23 09:13:00;;;;;;;;;;;;;;;-7.76;100.00;100384.27;1683499;85;21185;-61
2021/12/23 09:15:26;;;;;;;9.15;4.92;;;;;;;-7.82;100.00;100382.16;1663522;85;20441;-61
2021/12/23 09:17:54;;;;;;;8.53;4.83;;;;;;;-7.95;100.00;100378.97;1666645;86;21054;-61
2021/12/23 09:20:21;;;;;;;10.18;4.72;;;;;;;-7.80;100.00;100378.08;1678741;85;21067;-61
2021/12/23 09:22:48;;;;;;;10.15;5.28;;;;;;;-7.55;100.00;100373.55;1685372;84;21027;-61
2021/12/23 09:25:24;;;;;;;8.93;5.00;;;;;;;-7.40;100.00;100364.69;1684636;84;21125;-61
2021/12/23 09:28:03;;;;;;;13.30;7.30;;;;;;;-7.28;100.00;100368.83;1675235;86;21521;-62
2021/12/23 09:33:09;;;;;;;17.90;9.98;;;;;;;-7.11;100.00;100368.08;1667029;86;21042;-60
2021/12/23 09:35:37;;;;;;;13.15;6.97;;;;;;;-7.05;100.00;100362.23;1666961;85;21046;-62
2021/12/23 09:38:05;;;;;;;12.33;6.85;;;;;;;-7.14;100.00;100358.63;1666831;86;21078;-61
2021/12/23 09:40:33;;;;;;;12.58;6.40;;;;;;;-6.80;100.00;100359.43;1663384;85;21047;-61
2021/12/23 09:43:07;;;;;;;18.05;8.60;;;;;;;-6.47;100.00;100357.99;1674857;86;21062;-61
2021/12/23 09:45:33;;;;;;;17.67;8.40;;;;;;;-6.38;100.00;100350.50;1689674;84;21077;-63
2021/12/23 09:48:02;;;;;;;;;;;;;;;-6.43;100.00;100351.42;1701305;83;21057;-62
2021/12/23 09:50:32;;;;;;;13.70;7.65;;;;;;;-6.50;100.00;100349.02;1678018;84;20151;-64
2021/12/23 09:52:59;;;;;;;41.37;19.30;;;;;;;-6.53;100.00;100350.16;1643498;87;21079;-62
2021/12/23 09:55:26;;;;;;;22.40;11.43;;;;;;;-6.68;100.00;100337.90;1670550;85;21554;-61
2021/12/23 09:57:56;;;;;;;13.25;7.70;;;;;;;-7.09;98.67;100337.88;1678696;84;21058;-62
2021/12/23 10:00:25;;;;;;;11.10;7.55;;;;;;;-7.26;100.00;100329.34;1684155;85;21353;-61
2021/12/23 10:02:52;;;;;;;27.77;14.43;;;;;;;-7.19;100.00;100326.98;1686837;85;20983;-62
2021/12/23 10:05:22;;;;;;;14.18;9.13;;;;;;;-7.22;100.00;100324.11;1723732;83;21027;-62
2021/12/23 10:07:49;;;;;;;17.17;10.15;;;;;;;-7.39;100.00;100323.53;1723679;82;21035;-62
2021/12/23 10:10:26;;;;;;;16.05;10.30;;;;;;;-7.56;100.00;100325.59;1723406;83;21553;-62
2021/12/23 10:13:19;;;;;;;15.72;9.23;;;;;;;-7.78;100.00;100324.57;1723109;83;21075;-63
2021/12/23 10:38:47;;;;;;;16.82;9.43;;;;;;;-8.41;100.00;100309.65;1723338;82;21741;-64
2021/12/23 10:41:21;;;;;;;15.38;9.63;;;;;;;-8.54;100.00;100305.60;1723349;83;21065;-64
2021/12/23 10:44:02;;;;;;;17.87;11.00;;;;;;;-8.62;100.00;100302.32;1723361;82;21177;-63
2021/12/23 10:46:34;;;;;;;21.85;12.03;;;;;;;-8.60;100.00;100303.84;1723426;83;21051;-64
2021/12/23 10:49:27;;;;;;;17.55;10.18;;;;;;;-8.49;100.00;100292.81;1721621;82;21131;-64
2021/12/23 10:52:06;;;;;;;17.55;10.03;;;;;;;-8.59;100.00;100290.16;1727118;82;21046;-63
2021/12/23 11:00:34;;;;;;;13.90;9.37;;;;;;;-8.76;100.00;100286.87;1728048;83;21058;-64
2021/12/23 11:03:12;;;;;;;15.53;9.35;;;;;;;-8.66;100.00;100284.59;1729838;82;21122;-63
2021/12/23 11:05:48;;;;;;;14.93;8.68;;;;;;;-8.55;100.00;100286.77;1730667;83;21123;-64
2021/12/23 11:41:19;;;;;;;15.93;9.60;;;;;;;-8.85;100.00;100268.71;1743092;82;21015;-64
2021/12/23 11:43:52;;;;;;;15.88;9.48;;;;;;;-8.89;100.00;100264.67;1734496;82;21028;-65
2021/12/23 11:46:25;;;;;;;19.10;10.98;;;;;;;-8.87;100.00;100261.91;1727617;82;21030;-65
2021/12/23 11:48:54;;;;;;;19.05;11.53;;;;;;;-8.91;100.00;100255.23;1734881;81;21066;-64
2021/12/23 11:51:30;;;;;;;21.23;12.60;;;;;;;-8.92;100.00;100258.34;1730642;83;21035;-62
2021/12/23 11:53:50;;;;;;;21.40;11.63;;;;;;;-9.03;100.00;100255.01;1729472;81;21063;-64
2021/12/23 11:56:19;;;;;;;18.60;10.93;;;;;;;-9.13;100.00;100253.16;1730776;83;21050;-64
2021/12/23 11:58:47;;;;;;;18.73;10.43;;;;;;;-9.19;100.00;100249.75;1730621;81;21604;-64
2021/12/23 12:01:24;;;;;;;16.32;8.90;;;;;;;-9.25;100.00;100253.41;1719823;82;21659;-64
2021/12/23 12:03:56;;;;;;;18.85;10.98;;;;;;;-9.39;100.00;100252.45;1683045;84;21584;-64
2021/12/23 12:06:42;;;;;;;17.62;10.75;;;;;;;-9.53;100.00;100256.75;1717883;83;21585;-63
2021/12/23 12:09:22;;;;;;;17.52;10.58;;;;;;;-9.68;100.00;100242.60;1717919;82;21585;-64
2021/12/23 12:12:04;;;;;;;20.10;10.93;;;;;;;-9.76;100.00;100248.16;1717945;82;21512;-63
2021/12/23 12:14:42;;;;;;;18.80;10.35;;;;;;;-9.79;100.00;100251.89;1717496;82;21072;-63
2021/12/23 12:17:34;;;;;;;17.10;9.73;;;;;;;-9.87;100.00;100247.75;1717921;82;21580;-63
2021/12/23 12:20:39;;;;;;;21.90;11.35;;;;;;;-9.96;100.00;100239.32;1717278;82;21664;-67
2021/12/23 12:23:12;;;;;;;19.48;9.88;;;;;;;-10.00;100.00;100247.59;1717441;82;21048;-64
2021/12/23 12:25:53;;;;;;;18.07;10.38;;;;;;;-10.05;100.00;100241.87;1683185;85;21093;-65
2021/12/23 12:28:39;;;;;;;18.35;10.58;;;;;;;-10.13;100.00;100242.02;1717756;82;21656;-64
2021/12/23 12:31:09;;;;;;;22.40;11.28;;;;;;;-10.27;100.00;100238.94;1717980;83;21063;-63
2021/12/23 12:33:52;;;;;;;21.90;11.38;;;;;;;-10.36;100.00;100251.05;1717767;82;21071;-65